Time;durP1;ratioP1;P1;durP2;ratioP2;P2;SDS_P1;SDS_P2;PMS_P1;PMS_P2;Temp;Humidity;BMP_temperature;BMP_pressure;BME280_temperature;BME280_humidity;BME280_pressure;Samples;Min_cycle;Max_cycle;Signal;HPM_P1;HPM_P2
2024/01/21 00:00:35;;;;;;;12.45;6.07;;;;;;;-1.59;100.00;102242.66;4997304;28;20045;-72
2024/01/21 00:03:21;;;;;;;14.18;5.93;;;;;;;-1.58;100.00;102250.47;5007745;28;20033;-72
2024/01/21 00:06:07;;;;;;;10.60;4.78;;;;;;;-1.59;100.00;102242.66;5012080;28;20091;-71
2024/01/21 00:08:53;;;;;;;10.95;5.35;;;;;;;-1.60;100.00;102230.47;5009616;28;20044;-72
2024/01/21 00:11:38;;;;;;;9.32;4.95;;;;;;;-1.64;100.00;102227.81;5014173;28;20033;-72
2024/01/21 00:14:24;;;;;;;10.05;5.43;;;;;;;-1.65;100.00;102222.56;5010106;28;20570;-72
2024/01/21 00:17:11;;;;;;;12.43;5.90;;;;;;;-1.68;100.00;102228.56;5011332;28;20037;-72
2024/01/21 00:19:57;;;;;;;11.00;5.53;;;;;;;-1.68;100.00;102214.69;5012704;28;20041;-72
2024/01/21 00:22:45;;;;;;;11.32;5.55;;;;;;;-1.69;100.00;102213.81;5015575;28;20663;-72
2024/01/21 00:25:30;;;;;;;10.98;5.78;;;;;;;-1.70;100.00;102213.78;5016867;28;20471;-71
2024/01/21 00:28:16;;;;;;;12.05;5.35;;;;;;;-1.70;100.00;102206.00;5014458;28;20037;-72
2024/01/21 00:31:03;;;;;;;12.00;5.72;;;;;;;-1.69;100.00;102210.34;5012861;28;20057;-71
2024/01/21 00:33:49;;;;;;;11.75;5.70;;;;;;;-1.69;100.00;102206.03;5010329;28;20050;-72
2024/01/21 00:36:34;;;;;;;11.68;5.45;;;;;;;-1.66;100.00;102200.03;5010667;28;20041;-72
2024/01/21 00:39:20;;;;;;;11.70;5.13;;;;;;;-1.65;100.00;102199.19;5014732;28;20132;-71
2024/01/21 00:42:06;;;;;;;10.65;5.05;;;;;;;-1.63;100.00;102194.94;5017187;28;20392;-71
2024/01/21 00:44:51;;;;;;;9.43;5.07;;;;;;;-1.64;100.00;102188.84;5014881;28;20037;-72
2024/01/21 00:47:37;;;;;;;10.60;5.32;;;;;;;-1.64;100.00;102178.47;5012656;28;20048;-71
2024/01/21 00:50:23;;;;;;;11.57;5.50;;;;;;;-1.66;100.00;102174.06;5006721;28;20475;-71
2024/01/21 00:53:09;;;;;;;10.10;5.30;;;;;;;-1.71;100.00;102168.75;5014517;28;20041;-71
2024/01/21 00:55:54;;;;;;;9.13;4.55;;;;;;;-1.71;100.00;102166.16;5018403;28;20061;-72
2024/01/21 00:58:40;;;;;;;9.45;5.38;;;;;;;-1.73;100.00;102160.03;5013670;28;20037;-71
2024/01/21 01:01:26;;;;;;;10.65;5.30;;;;;;;-1.71;100.00;102147.06;5015951;28;20048;-72
2024/01/21 01:04:12;;;;;;;11.25;5.40;;;;;;;-1.71;100.00;102144.47;5018714;28;20029;-71
2024/01/21 01:06:58;;;;;;;9.02;4.60;;;;;;;-1.72;100.00;102137.53;5019473;28;20042;-72
2024/01/21 01:09:43;;;;;;;10.40;5.25;;;;;;;-1.72;100.00;102133.22;5017629;28;20041;-71
2024/01/21 01:12:29;;;;;;;11.00;4.70;;;;;;;-1.72;100.00;102129.75;5011258;28;20575;-72
2024/01/21 01:15:15;;;;;;;10.07;5.00;;;;;;;-1.71;100.00;102116.81;5011905;28;20436;-71
2024/01/21 01:18:00;;;;;;;11.68;5.18;;;;;;;-1.69;100.00;102109.91;5013058;28;21861;-71
2024/01/21 01:20:46;;;;;;;9.98;4.95;;;;;;;-1.65;100.00;102103.97;5014798;28;20556;-71
2024/01/21 01:23:32;;;;;;;9.60;4.95;;;;;;;-1.64;100.00;102104.84;5013328;28;20099;-72
2024/01/21 01:26:18;;;;;;;10.00;5.20;;;;;;;-1.62;100.00;102100.59;5014441;28;22108;-72
2024/01/21 01:29:03;;;;;;;9.68;5.00;;;;;;;-1.60;100.00;102088.50;5009659;28;20508;-71
2024/01/21 01:31:49;;;;;;;9.75;4.60;;;;;;;-1.59;100.00;102082.47;5009846;28;20270;-71
2024/01/21 01:34:35;;;;;;;8.13;4.78;;;;;;;-1.57;100.00;102074.72;5009319;28;20742;-72
2024/01/21 01:37:22;;;;;;;9.40;5.10;;;;;;;-1.56;100.00;102071.28;5014103;28;20404;-72
2024/01/21 01:40:08;;;;;;;9.65;4.82;;;;;;;-1.56;100.00;102050.50;5013174;28;20026;-71
2024/01/21 01:42:57;;;;;;;9.57;5.20;;;;;;;-1.55;100.00;102054.84;5015371;28;20041;-71
2024/01/21 01:45:43;;;;;;;10.85;4.57;;;;;;;-1.55;100.00;102040.16;5008339;28;20038;-71
2024/01/21 01:48:29;;;;;;;7.50;4.57;;;;;;;-1.51;100.00;102041.09;5012962;28;20045;-72
2024/01/21 01:51:16;;;;;;;9.57;4.70;;;;;;;-1.48;100.00;102035.09;4998429;28;20033;-72
2024/01/21 01:54:02;;;;;;;7.20;4.22;;;;;;;-1.48;100.00;102027.31;5013866;28;20454;-72
2024/01/21 01:56:47;;;;;;;7.20;3.83;;;;;;;-1.49;100.00;102034.22;5015925;28;20560;-71
2024/01/21 01:59:34;;;;;;;6.28;3.80;;;;;;;-1.49;100.00;102031.63;5010673;28;20030;-71
2024/01/21 02:02:20;;;;;;;8.07;4.18;;;;;;;-1.51;100.00;102023.78;5011033;28;20102;-71
2024/01/21 02:05:06;;;;;;;7.88;3.97;;;;;;;-1.53;100.00;102002.09;5013729;28;20439;-71
2024/01/21 02:07:52;;;;;;;9.75;4.30;;;;;;;-1.55;100.00;102006.38;5017986;28;20051;-71
2024/01/21 02:10:38;;;;;;;8.13;4.25;;;;;;;-1.58;100.00;102005.44;5015916;28;20550;-72
2024/01/21 02:13:23;;;;;;;7.10;4.15;;;;;;;-1.61;100.00;101988.06;5013242;28;20040;-71
2024/01/21 02:16:10;;;;;;;6.03;3.95;;;;;;;-1.61;100.00;101988.06;5011997;28;20061;-71
2024/01/21 02:18:56;;;;;;;7.63;4.07;;;;;;;-1.61;100.00;101979.38;5010710;28;20042;-72
2024/01/21 02:21:42;;;;;;;7.32;4.10;;;;;;;-1.62;100.00;101964.63;5016938;28;20037;-71
2024/01/21 02:24:31;;;;;;;6.00;3.70;;;;;;;-1.63;100.00;101963.78;5017206;28;20033;-72
2024/01/21 02:27:17;;;;;;;7.45;4.13;;;;;;;-1.62;100.00;101962.91;5016768;28;20047;-71
2024/01/21 02:30:03;;;;;;;6.30;3.67;;;;;;;-1.59;100.00;101962.13;5017519;28;20061;-71
2024/01/21 02:32:49;;;;;;;8.57;4.03;;;;;;;-1.58;100.00;101949.16;5012417;28;21751;-71
2024/01/21 02:35:36;;;;;;;7.00;4.00;;;;;;;-1.58;100.00;101951.75;5013795;28;20066;-71
2024/01/21 02:38:22;;;;;;;6.78;3.95;;;;;;;-1.56;100.00;101949.19;5013728;28;20052;-72
2024/01/21 02:41:07;;;;;;;7.68;3.88;;;;;;;-1.57;100.00;101950.03;5013998;28;20075;-71
2024/01/21 02:43:53;;;;;;;9.98;3.95;;;;;;;-1.58;100.00;101930.09;5010794;28;20045;-72
2024/01/21 02:46:39;;;;;;;7.93;4.20;;;;;;;-1.58;100.00;101923.16;4999239;28;20595;-71
2024/01/21 02:49:28;;;;;;;9.35;4.22;;;;;;;-1.57;100.00;101917.13;5009089;28;20049;-71
2024/01/21 02:52:14;;;;;;;7.05;4.20;;;;;;;-1.55;100.00;101901.59;5008897;28;20489;-71
2024/01/21 02:55:00;;;;;;;8.68;4.20;;;;;;;-1.54;100.00;101893.84;5014994;28;20042;-71
2024/01/21 02:57:45;;;;;;;8.18;3.92;;;;;;;-1.50;100.00;101889.59;5010557;28;20049;-71
2024/01/21 03:00:31;;;;;;;7.28;3.83;;;;;;;-1.52;100.00;101886.94;5012021;28;20037;-71
2024/01/21 03:03:17;;;;;;;7.10;3.95;;;;;;;-1.51;100.00;101880.91;5021784;28;20030;-71
2024/01/21 03:06:03;;;;;;;6.35;3.33;;;;;;;-1.48;100.00;101879.22;5012619;28;20110;-71
2024/01/21 03:08:48;;;;;;;7.05;3.55;;;;;;;-1.47;100.00;101875.78;5013396;28;20095;-71
2024/01/21 03:11:36;;;;;;;8.77;4.38;;;;;;;-1.46;100.00;101862.84;5012052;28;20108;-71
2024/01/21 03:14:22;;;;;;;6.57;3.63;;;;;;;-1.45;100.00;101861.09;5009624;28;20042;-71
2024/01/21 03:17:08;;;;;;;6.75;4.15;;;;;;;-1.47;100.00;101861.06;5011423;28;20065;-70
2024/01/21 03:19:54;;;;;;;9.00;4.10;;;;;;;-1.49;100.00;101862.75;5013069;28;20072;-71
2024/01/21 03:22:40;;;;;;;8.90;3.88;;;;;;;-1.50;100.00;101842.81;5013133;28;20662;-70
2024/01/21 03:25:25;;;;;;;8.50;4.25;;;;;;;-1.53;100.00;101838.44;5013255;28;20037;-71
2024/01/21 03:28:12;;;;;;;8.65;4.40;;;;;;;-1.51;100.00;101841.06;5012932;28;20547;-71
2024/01/21 03:30:57;;;;;;;7.53;4.03;;;;;;;-1.49;100.00;101822.94;5013861;28;20699;-71
2024/01/21 03:33:43;;;;;;;7.03;3.95;;;;;;;-1.48;100.00;101828.13;5013446;28;20141;-71
2024/01/21 03:36:29;;;;;;;6.28;3.70;;;;;;;-1.49;100.00;101828.13;5012530;28;20041;-71
2024/01/21 03:39:15;;;;;;;7.53;3.55;;;;;;;-1.51;100.00;101826.34;5009881;28;20106;-71
2024/01/21 03:42:01;;;;;;;8.85;4.03;;;;;;;-1.51;100.00;101821.16;5011451;28;20044;-71
2024/01/21 03:44:48;;;;;;;8.38;4.18;;;;;;;-1.50;100.00;101822.03;5009356;28;20041;-71
2024/01/21 03:47:34;;;;;;;7.30;3.75;;;;;;;-1.51;100.00;101810.75;5010346;28;20151;-71
2024/01/21 03:50:20;;;;;;;7.10;2.92;;;;;;;-1.46;100.00;101812.59;5013973;28;20047;-71
2024/01/21 03:53:06;;;;;;;7.35;3.45;;;;;;;-1.44;100.00;101808.28;5011227;28;20234;-71
2024/01/21 03:55:51;;;;;;;5.35;3.47;;;;;;;-1.41;100.00;101801.44;5013064;28;20705;-71
2024/01/21 03:58:38;;;;;;;6.53;3.28;;;;;;;-1.36;100.00;101804.16;5012667;28;20037;-71
2024/01/21 04:01:23;;;;;;;6.75;3.55;;;;;;;-1.35;100.00;101797.19;5010043;28;20144;-71
2024/01/21 04:04:11;;;;;;;5.85;3.55;;;;;;;-1.33;100.00;101788.59;5009677;28;20041;-71
2024/01/21 04:06:56;;;;;;;7.40;3.22;;;;;;;-1.31;100.00;101784.28;4996904;28;20692;-71
2024/01/21 04:09:42;;;;;;;6.35;3.45;;;;;;;-1.28;100.00;101783.47;5010693;28;20868;-71
2024/01/21 04:12:28;;;;;;;6.07;3.15;;;;;;;-1.25;100.00;101780.97;5009013;28;20124;-71
2024/01/21 04:15:13;;;;;;;4.88;2.65;;;;;;;-1.23;100.00;101772.34;4997463;28;20029;-70
2024/01/21 04:17:59;;;;;;;6.45;3.15;;;;;;;-1.21;100.00;101761.09;5013975;28;20064;-71
2024/01/21 04:20:45;;;;;;;5.55;3.10;;;;;;;-1.20;100.00;101742.91;5016717;28;20485;-71
2024/01/21 04:23:31;;;;;;;5.72;3.10;;;;;;;-1.19;100.00;101744.69;5015793;28;20107;-70
2024/01/21 04:26:16;;;;;;;4.20;2.83;;;;;;;-1.19;100.00;101730.81;5015111;28;20123;-71
2024/01/21 04:29:02;;;;;;;6.85;3.08;;;;;;;-1.18;100.00;101727.34;5012094;28;20578;-71
2024/01/21 04:31:48;;;;;;;6.25;3.08;;;;;;;-1.18;100.00;101735.16;4994806;28;20041;-71
2024/01/21 04:34:34;;;;;;;5.40;2.97;;;;;;;-1.17;100.00;101729.09;5012800;28;20030;-70
2024/01/21 04:37:20;;;;;;;5.90;3.10;;;;;;;-1.18;100.00;101720.44;5010297;28;20071;-71
2024/01/21 04:40:06;;;;;;;4.60;2.85;;;;;;;-1.18;100.00;101722.16;5009483;28;20034;-71
2024/01/21 04:42:52;;;;;;;8.18;3.05;;;;;;;-1.17;100.00;101723.91;5014895;28;20057;-72
2024/01/21 04:45:38;;;;;;;5.28;3.22;;;;;;;-1.15;100.00;101722.22;5013381;28;20041;-71
2024/01/21 04:48:24;;;;;;;7.60;3.08;;;;;;;-1.12;100.00;101717.06;5000327;28;20059;-71
2024/01/21 04:51:10;;;;;;;4.30;2.55;;;;;;;-1.09;100.00;101714.53;5011467;28;20037;-71
2024/01/21 04:53:56;;;;;;;5.32;2.80;;;;;;;-1.08;100.00;101692.88;5012192;28;20049;-72
2024/01/21 04:56:42;;;;;;;5.40;2.83;;;;;;;-1.05;100.00;101673.88;5017061;28;20692;-71
2024/01/21 04:59:28;;;;;;;4.88;2.58;;;;;;;-1.03;100.00;101662.63;5012616;28;20037;-72
2024/01/21 05:02:14;;;;;;;4.88;2.65;;;;;;;-0.99;100.00;101658.34;5011645;28;20072;-72
2024/01/21 05:05:02;;;;;;;4.57;3.08;;;;;;;-0.97;100.00;101646.25;5014905;28;20198;-72
2024/01/21 05:07:48;;;;;;;3.95;2.53;;;;;;;-0.98;100.00;101653.16;4998486;28;20043;-71
2024/01/21 05:10:34;;;;;;;6.65;2.67;;;;;;;-0.97;100.00;101673.13;5015528;28;20038;-72
2024/01/21 05:13:20;;;;;;;5.90;2.90;;;;;;;-0.96;100.00;101667.06;5012893;28;21001;-71
2024/01/21 05:16:06;;;;;;;5.70;2.60;;;;;;;-0.95;100.00;101654.94;5012101;28;20037;-71
2024/01/21 05:18:52;;;;;;;5.28;2.80;;;;;;;-0.94;100.00;101635.88;5011025;28;20480;-71
2024/01/21 05:21:38;;;;;;;4.85;2.47;;;;;;;-0.90;100.00;101610.81;5015848;28;20097;-71
2024/01/21 05:24:24;;;;;;;5.70;2.47;;;;;;;-0.90;100.00;101596.09;5013425;28;20052;-72
2024/01/21 05:27:10;;;;;;;5.15;2.78;;;;;;;-0.87;100.00;101597.88;5011247;28;20037;-72
2024/01/21 05:29:55;;;;;;;6.18;2.60;;;;;;;-0.84;100.00;101592.69;5012116;28;20045;-72
2024/01/21 05:32:46;;;;;;;4.57;2.50;;;;;;;-0.79;100.00;101610.97;5010408;28;20215;-71
2024/01/21 05:35:31;;;;;;;4.25;2.25;;;;;;;-0.73;100.00;101608.44;5010312;28;21175;-72
2024/01/21 05:38:17;;;;;;;5.53;2.65;;;;;;;-0.67;100.00;101603.34;5010301;28;20138;-71
2024/01/21 05:41:03;;;;;;;4.28;2.75;;;;;;;-0.61;100.00;101587.81;5012618;28;20677;-70
2024/01/21 05:43:49;;;;;;;4.47;2.28;;;;;;;-0.56;100.00;101562.75;5010404;28;22047;-70
2024/01/21 05:46:34;;;;;;;4.10;2.50;;;;;;;-0.53;100.00;101541.09;5012317;28;20652;-70
2024/01/21 05:49:21;;;;;;;5.07;2.60;;;;;;;-0.50;100.00;101541.13;5009085;28;20033;-70
2024/01/21 05:52:07;;;;;;;5.85;2.75;;;;;;;-0.50;100.00;101580.13;5009190;28;20044;-70
2024/01/21 05:54:52;;;;;;;4.78;2.47;;;;;;;-0.48;100.00;101582.78;5007597;28;20041;-70
2024/01/21 05:57:40;;;;;;;5.00;2.78;;;;;;;-0.45;100.00;101574.97;5009309;28;20029;-70
2024/01/21 06:00:25;;;;;;;3.70;2.55;;;;;;;-0.42;100.00;101577.63;5010597;28;20556;-69
2024/01/21 06:03:11;;;;;;;5.57;2.72;;;;;;;-0.40;100.00;101577.66;5010322;28;20033;-70
2024/01/21 06:05:57;;;;;;;5.05;2.40;;;;;;;-0.43;100.00;101550.72;5016135;28;20064;-70
2024/01/21 06:08:43;;;;;;;4.28;2.47;;;;;;;-0.44;100.00;101522.97;5014674;28;20683;-70
2024/01/21 06:11:28;;;;;;;3.97;2.30;;;;;;;-0.47;100.00;101481.31;5014916;28;20037;-70
2024/01/21 06:14:14;;;;;;;5.72;2.88;;;;;;;-0.45;100.00;101508.22;5007389;28;20561;-70
2024/01/21 06:17:02;;;;;;;6.15;3.17;;;;;;;-0.46;100.00;101563.72;4994839;28;20041;-69
2024/01/21 06:19:48;;;;;;;6.30;3.17;;;;;;;-0.47;100.00;101559.38;5007357;28;20206;-69
2024/01/21 06:22:34;;;;;;;4.28;2.50;;;;;;;-0.47;100.00;101548.09;5010239;28;20049;-70
2024/01/21 06:25:21;;;;;;;5.88;2.92;;;;;;;-0.49;100.00;101545.47;5010062;28;20037;-69
2024/01/21 06:28:07;;;;;;;4.32;2.67;;;;;;;-0.51;100.00;101547.19;5009164;28;22017;-70
2024/01/21 06:30:53;;;;;;;6.13;2.90;;;;;;;-0.55;100.00;101483.84;5008775;28;20052;-70
2024/01/21 06:33:39;;;;;;;5.10;2.28;;;;;;;-0.57;100.00;101495.97;5008723;28;20059;-70
2024/01/21 06:36:25;;;;;;;3.95;2.70;;;;;;;-0.59;100.00;101548.81;5006876;28;20107;-69
2024/01/21 06:39:11;;;;;;;5.28;2.85;;;;;;;-0.60;100.00;101560.94;5012410;28;20381;-70
2024/01/21 06:41:57;;;;;;;5.75;2.83;;;;;;;-0.61;100.00;101555.75;5009643;28;20649;-70
2024/01/21 06:44:43;;;;;;;7.20;2.80;;;;;;;-0.61;100.00;101537.53;5013823;28;20120;-70
2024/01/21 06:47:29;;;;;;;5.93;2.80;;;;;;;-0.64;100.00;101499.34;5005728;28;20090;-70
2024/01/21 06:50:15;;;;;;;6.43;3.10;;;;;;;-0.63;100.00;101513.22;5009133;28;20049;-70
2024/01/21 06:53:00;;;;;;;4.38;2.92;;;;;;;-0.65;100.00;101523.59;5013675;28;20077;-70
2024/01/21 06:55:46;;;;;;;6.20;2.97;;;;;;;-0.65;100.00;101523.59;5013326;28;20042;-70
2024/01/21 06:58:32;;;;;;;5.40;2.83;;;;;;;-0.65;100.00;101523.59;5008889;28;20141;-70
2024/01/21 07:01:18;;;;;;;5.90;3.15;;;;;;;-0.66;100.00;101524.44;5012281;28;20080;-70
2024/01/21 07:04:03;;;;;;;5.88;2.97;;;;;;;-0.69;100.00;101506.22;5013288;28;20045;-70
2024/01/21 07:06:50;;;;;;;6.00;3.10;;;;;;;-0.70;100.00;101512.28;5012386;28;20416;-69
2024/01/21 07:09:40;;;;;;;6.60;3.42;;;;;;;-0.72;100.00;101504.44;5010612;28;20491;-70
2024/01/21 07:12:26;;;;;;;5.68;3.03;;;;;;;-0.73;100.00;101500.09;5007715;28;20083;-69
2024/01/21 07:15:11;;;;;;;7.13;3.60;;;;;;;-0.73;100.00;101494.91;5009979;28;20127;-70
2024/01/21 07:17:57;;;;;;;6.63;3.50;;;;;;;-0.71;100.00;101497.53;5008928;28;20049;-70
2024/01/21 07:20:43;;;;;;;6.82;3.58;;;;;;;-0.71;100.00;101497.53;5012037;28;20112;-70
2024/01/21 07:23:28;;;;;;;7.93;3.25;;;;;;;-0.72;100.00;101496.66;5013369;28;20508;-70
2024/01/21 07:26:14;;;;;;;7.45;3.55;;;;;;;-0.72;100.00;101501.84;5011602;28;20129;-69
2024/01/21 07:29:00;;;;;;;8.02;3.30;;;;;;;-0.70;100.00;101535.69;5009939;28;20099;-70
2024/01/21 07:31:46;;;;;;;7.80;3.20;;;;;;;-0.70;100.00;101535.69;5013805;28;20094;-70
2024/01/21 07:34:32;;;;;;;7.45;3.47;;;;;;;-0.68;100.00;101541.78;4994683;28;20053;-70
2024/01/21 07:37:18;;;;;;;7.30;3.88;;;;;;;-0.64;100.00;101514.06;4993546;28;20050;-69
2024/01/21 07:40:04;;;;;;;7.88;3.75;;;;;;;-0.63;100.00;101521.00;4995641;28;20076;-70
2024/01/21 07:42:50;;;;;;;6.95;3.83;;;;;;;-0.62;100.00;101527.94;4994859;28;20064;-70
2024/01/21 07:45:36;;;;;;;6.90;3.60;;;;;;;-0.60;100.00;101523.66;4978011;28;20046;-70
2024/01/21 07:48:23;;;;;;;6.72;3.35;;;;;;;-0.58;100.00;101501.13;4990234;28;20046;-71
2024/01/21 07:51:09;;;;;;;6.57;3.55;;;;;;;-0.57;100.00;101526.28;4999426;28;20057;-71
2024/01/21 07:53:55;;;;;;;7.47;3.33;;;;;;;-0.55;100.00;101543.66;5002330;28;20099;-71
2024/01/21 07:56:40;;;;;;;7.07;3.30;;;;;;;-0.53;100.00;101537.59;4998062;28;20034;-71
2024/01/21 07:59:26;;;;;;;6.50;3.70;;;;;;;-0.53;100.00;101548.91;4984243;28;20041;-71
2024/01/21 08:02:12;;;;;;;7.18;3.63;;;;;;;-0.50;100.00;101559.31;4994937;28;20076;-71
2024/01/21 08:04:57;;;;;;;7.78;3.55;;;;;;;-0.50;100.00;101566.28;4999138;28;20129;-71
2024/01/21 08:07:43;;;;;;;8.65;4.20;;;;;;;-0.50;100.00;101558.47;4985822;28;20059;-71
2024/01/21 08:10:29;;;;;;;7.53;3.70;;;;;;;-0.50;100.00;101564.53;5000014;28;20046;-70
2024/01/21 08:13:15;;;;;;;5.68;3.72;;;;;;;-0.50;100.00;101564.53;4984302;28;20038;-71
2024/01/21 08:16:01;;;;;;;6.30;3.20;;;;;;;-0.47;100.00;101551.56;4995136;28;20109;-72
2024/01/21 08:18:46;;;;;;;6.55;3.70;;;;;;;-0.46;100.00;101549.81;4999305;28;20049;-71
2024/01/21 08:21:32;;;;;;;7.00;3.70;;;;;;;-0.45;100.00;101542.03;4995496;28;21776;-71
2024/01/21 08:24:18;;;;;;;6.47;3.50;;;;;;;-0.40;100.00;101542.09;4984854;28;20045;-71
2024/01/21 08:27:04;;;;;;;9.52;3.50;;;;;;;-0.37;100.00;101551.66;5000538;28;20041;-71
2024/01/21 08:29:49;;;;;;;7.28;3.75;;;;;;;-0.31;100.00;101551.75;4983123;28;20029;-71
2024/01/21 08:32:36;;;;;;;6.70;3.42;;;;;;;-0.26;100.00;101536.16;4997014;28;20121;-70
2024/01/21 08:35:22;;;;;;;8.02;4.00;;;;;;;-0.21;100.00;101537.09;5015463;28;20073;-72
2024/01/21 08:38:07;;;;;;;8.32;4.45;;;;;;;-0.16;100.00;101548.44;5015932;28;20466;-70
2024/01/21 08:40:53;;;;;;;9.57;4.45;;;;;;;-0.13;100.00;101548.47;5017695;28;20133;-69
2024/01/21 08:43:39;;;;;;;7.38;4.22;;;;;;;-0.10;100.00;101555.44;5015014;28;20040;-70
2024/01/21 08:46:24;;;;;;;8.80;3.70;;;;;;;-0.09;100.00;101557.16;5012713;28;20061;-71
2024/01/21 08:49:10;;;;;;;8.10;4.03;;;;;;;-0.05;100.00;101552.00;5013232;28;20419;-70
2024/01/21 08:51:56;;;;;;;9.10;4.00;;;;;;;0.01;100.00;101553.81;5009415;28;21608;-70
2024/01/21 08:54:42;;;;;;;7.05;3.30;;;;;;;0.08;100.00;101552.13;5011793;28;20068;-71
2024/01/21 08:57:27;;;;;;;9.23;4.38;;;;;;;0.12;100.00;101561.72;5009802;28;20042;-70
2024/01/21 09:00:13;;;;;;;9.52;4.53;;;;;;;0.16;100.00;101539.19;5012473;28;22152;-70
2024/01/21 09:02:59;;;;;;;7.30;4.00;;;;;;;0.21;100.00;101525.34;5011262;28;20202;-70
2024/01/21 09:05:45;;;;;;;8.55;3.80;;;;;;;0.25;100.00;101526.25;5010776;28;20643;-71
2024/01/21 09:08:31;;;;;;;8.63;4.20;;;;;;;0.30;100.00;101515.84;5009262;28;20930;-70
2024/01/21 09:11:17;;;;;;;8.95;4.40;;;;;;;0.35;100.00;101516.75;5009939;28;21999;-70
2024/01/21 09:14:02;;;;;;;8.35;3.90;;;;;;;0.42;100.00;101515.09;5007273;28;20025;-70
2024/01/21 09:16:48;;;;;;;8.88;4.25;;;;;;;0.48;100.00;101525.56;5010300;28;20045;-70
2024/01/21 09:19:34;;;;;;;6.35;4.00;;;;;;;0.55;100.00;101545.59;5010331;28;20297;-70
2024/01/21 09:22:20;;;;;;;10.77;4.40;;;;;;;0.59;100.00;101560.38;5011432;28;20117;-71
2024/01/21 09:25:06;;;;;;;7.60;4.18;;;;;;;0.62;100.00;101555.22;5014191;28;20118;-69
2024/01/21 09:27:52;;;;;;;8.15;3.92;;;;;;;0.63;100.00;101562.16;5014544;28;20045;-70
2024/01/21 09:30:37;;;;;;;7.07;4.05;;;;;;;0.66;100.00;101540.47;5013640;28;20052;-70
2024/01/21 09:33:23;;;;;;;9.15;4.57;;;;;;;0.67;100.00;101550.88;5012644;28;20508;-71
2024/01/21 09:36:11;;;;;;;8.38;4.90;;;;;;;0.67;100.00;101553.47;5012959;28;20979;-71
2024/01/21 09:38:57;;;;;;;7.22;4.05;;;;;;;0.67;100.00;101553.47;5009418;28;20047;-70
2024/01/21 09:41:48;;;;;;;7.95;4.20;;;;;;;0.69;100.00;101553.50;5012510;28;20116;-70
2024/01/21 09:44:33;;;;;;;7.78;4.38;;;;;;;0.71;100.00;101543.09;5010132;28;20773;-70
2024/01/21 09:47:19;;;;;;;9.10;4.85;;;;;;;0.75;100.00;101555.25;4996253;28;20091;-70
2024/01/21 09:50:06;;;;;;;8.18;4.32;;;;;;;0.77;100.00;101546.59;5010133;28;20037;-70
2024/01/21 09:52:52;;;;;;;7.50;4.47;;;;;;;0.81;100.00;101555.31;5008866;28;20045;-70
2024/01/21 09:55:37;;;;;;;8.52;4.80;;;;;;;0.83;100.00;101552.72;5007018;28;20921;-70
2024/01/21 09:58:24;;;;;;;9.63;4.45;;;;;;;0.83;100.00;101543.19;5009298;28;20037;-70
2024/01/21 10:01:10;;;;;;;15.40;6.88;;;;;;;0.85;100.00;101553.59;5011898;28;20429;-69
2024/01/21 10:03:56;;;;;;;8.82;4.88;;;;;;;0.84;100.00;101534.50;5008867;28;20077;-70
2024/01/21 10:06:42;;;;;;;12.07;5.47;;;;;;;0.88;100.00;101543.19;5011439;28;20708;-69
2024/01/21 10:09:29;;;;;;;12.35;5.38;;;;;;;0.89;100.00;101545.81;5009180;28;20052;-70
2024/01/21 10:12:17;;;;;;;9.38;4.60;;;;;;;0.92;100.00;101547.56;5009435;28;20041;-69
2024/01/21 10:15:03;;;;;;;8.98;4.95;;;;;;;0.92;100.00;101548.44;5010505;28;20124;-70
2024/01/21 10:17:51;;;;;;;10.95;5.43;;;;;;;0.94;100.00;101551.91;5007591;28;20037;-70
2024/01/21 10:20:38;;;;;;;10.93;4.65;;;;;;;0.96;100.00;101532.84;5007574;28;20060;-69
2024/01/21 10:23:24;;;;;;;9.85;5.43;;;;;;;0.99;100.00;101535.44;5010156;28;20037;-70
2024/01/21 10:26:09;;;;;;;8.23;4.60;;;;;;;1.04;100.00;101531.13;5008087;28;20092;-69
2024/01/21 10:28:55;;;;;;;8.20;5.07;;;;;;;1.06;100.00;101532.00;5009209;28;20045;-70
2024/01/21 10:31:41;;;;;;;9.48;4.70;;;;;;;1.10;100.00;101541.59;5008847;28;20037;-70
2024/01/21 10:34:27;;;;;;;11.90;5.18;;;;;;;1.12;100.00;101532.03;5010101;28;20057;-69
2024/01/21 10:37:16;;;;;;;9.43;4.65;;;;;;;1.13;100.00;101531.16;5006559;28;20118;-69
2024/01/21 10:40:02;;;;;;;9.55;4.65;;;;;;;1.18;100.00;101532.06;5009854;28;20052;-71
2024/01/21 10:42:53;;;;;;;9.27;4.93;;;;;;;1.20;100.00;101527.72;5007110;28;20045;-68
2024/01/21 10:45:42;;;;;;;8.98;4.82;;;;;;;1.21;100.00;101526.84;5006006;28;20069;-69
2024/01/21 10:48:28;;;;;;;10.32;4.72;;;;;;;1.26;100.00;101531.22;5010822;28;20356;-70
2024/01/21 10:51:15;;;;;;;7.40;4.65;;;;;;;1.27;100.00;101533.84;4993300;28;22066;-69
2024/01/21 10:54:03;;;;;;;8.07;4.38;;;;;;;1.28;100.00;101519.94;5006848;28;20040;-70
2024/01/21 10:56:49;;;;;;;7.22;4.68;;;;;;;1.30;100.00;101525.16;5008737;28;20033;-70
2024/01/21 10:59:38;;;;;;;7.95;4.65;;;;;;;1.34;100.00;101534.72;5007836;28;20037;-71
2024/01/21 11:02:24;;;;;;;10.20;5.03;;;;;;;1.34;100.00;101540.84;5011922;28;20061;-70
2024/01/21 11:05:10;;;;;;;9.98;5.20;;;;;;;1.37;100.00;101528.66;5011143;28;20043;-70
2024/01/21 11:08:02;;;;;;;10.27;4.88;;;;;;;1.40;100.00;101520.81;5011106;28;20056;-70
2024/01/21 11:10:57;;;;;;;11.13;5.32;;;;;;;1.39;100.00;101506.94;5008967;28;20096;-70
2024/01/21 11:13:49;;;;;;;9.95;5.32;;;;;;;1.43;100.00;101513.91;5007597;28;20107;-69
2024/01/21 11:16:35;;;;;;;10.10;5.28;;;;;;;1.46;100.00;101513.03;5007739;28;20139;-70
2024/01/21 11:19:23;;;;;;;9.80;4.80;;;;;;;1.48;100.00;101509.56;5006443;28;20095;-70
2024/01/21 11:22:11;;;;;;;8.80;5.07;;;;;;;1.52;100.00;101514.81;5008193;28;20045;-70
2024/01/21 11:24:57;;;;;;;11.25;5.85;;;;;;;1.53;100.00;101511.31;5007805;28;20048;-70
2024/01/21 11:27:43;;;;;;;11.35;5.30;;;;;;;1.57;100.00;101513.09;5003970;28;20049;-70
2024/01/21 11:30:29;;;;;;;11.88;6.05;;;;;;;1.58;100.00;101512.22;5008826;28;20037;-69
2024/01/21 11:33:16;;;;;;;11.82;6.18;;;;;;;1.59;100.00;101517.41;5006177;28;20068;-70
2024/01/21 11:36:02;;;;;;;13.50;6.28;;;;;;;1.60;100.00;101500.91;5012009;28;20768;-70
2024/01/21 11:38:48;;;;;;;11.25;5.40;;;;;;;1.60;100.00;101506.13;5011368;28;20049;-70
2024/01/21 11:41:43;;;;;;;12.98;6.13;;;;;;;1.63;100.00;101510.47;5012747;28;20622;-69
2024/01/21 11:44:30;;;;;;;15.57;5.47;;;;;;;1.65;100.00;101508.75;5010672;28;20488;-70
2024/01/21 11:47:16;;;;;;;10.45;6.22;;;;;;;1.66;100.00;101510.47;5008242;28;20045;-70
2024/01/21 11:50:02;;;;;;;12.18;6.65;;;;;;;1.69;100.00;101507.00;5008947;28;20381;-70
2024/01/21 11:52:48;;;;;;;12.77;6.28;;;;;;;1.71;100.00;101497.44;5021991;28;20152;-70
2024/01/21 11:55:34;;;;;;;14.93;6.25;;;;;;;1.72;100.00;101489.63;5009992;28;20150;-70
2024/01/21 11:58:20;;;;;;;11.57;6.15;;;;;;;1.75;100.00;101494.81;5023813;28;20052;-70
2024/01/21 12:01:06;;;;;;;12.45;6.15;;;;;;;1.81;100.00;101493.09;5010581;28;20038;-71
2024/01/21 12:03:52;;;;;;;17.10;7.00;;;;;;;1.84;100.00;101480.03;5007055;28;20613;-71
2024/01/21 12:06:40;;;;;;;11.70;6.43;;;;;;;1.85;100.00;101485.25;5012275;28;20026;-71
2024/01/21 12:09:26;;;;;;;14.77;6.95;;;;;;;1.89;100.00;101481.81;4996000;28;20195;-71
2024/01/21 12:12:13;;;;;;;12.55;6.47;;;;;;;1.91;100.00;101489.66;5009479;28;20048;-71
2024/01/21 12:14:59;;;;;;;12.52;6.63;;;;;;;1.95;100.00;101493.13;5010345;28;20404;-71
2024/01/21 12:17:54;;;;;;;12.27;6.93;;;;;;;1.98;100.00;101485.28;5009878;28;20045;-71
2024/01/21 12:20:40;;;;;;;18.60;6.70;;;;;;;2.00;100.00;101487.03;4993510;28;20037;-70
2024/01/21 12:23:26;;;;;;;13.50;6.35;;;;;;;2.04;100.00;101482.69;5009237;28;20415;-70
2024/01/21 12:26:19;;;;;;;11.77;5.90;;;;;;;2.06;100.00;101482.69;5010568;28;20516;-70
2024/01/21 12:29:09;;;;;;;12.27;7.07;;;;;;;2.08;100.00;101491.38;4997374;28;20033;-71
2024/01/21 12:31:54;;;;;;;12.77;6.80;;;;;;;2.09;100.00;101482.69;5007518;28;20095;-70
2024/01/21 12:34:40;;;;;;;12.23;6.10;;;;;;;2.10;100.00;101479.19;5007721;28;20046;-70
2024/01/21 12:37:26;;;;;;;13.05;7.00;;;;;;;2.12;100.00;101470.47;5001065;28;20041;-69
2024/01/21 12:40:12;;;;;;;15.65;7.10;;;;;;;2.14;100.00;101476.56;5010333;28;20041;-69
2024/01/21 12:42:57;;;;;;;12.30;6.93;;;;;;;2.16;100.00;101468.75;5013707;28;21278;-70